Hamilton, Kansas
Current Conditions -  °F | °C
As of 3:53 PM on Thursday 27 Nov 2014 (Local Time) from KEMP Reporting Station
Clear Clear  
Wind Chill: 33°   Ceiling: Unl
Heat Index: 41°   Visibility: 10mi
Dew Point: 17°   Wind: 15mph
Humidity: 38%   Direction: 160°SSE
Pressure: 30.34"   Gusts: NA
Location:  37.98°N, 96.16°W
Report Text: KEMP 272153Z AUTO 16013KT 10SM CLR 05/M08 A3034 RMK AO2 SLP288 T00501083
Loading
Personal Weather Stations






























Interactive Weather Map New forecast layout! Learn more

10-Day Weather Forecast

Advertisements
Track Severe Weather on mobile